sensor_id;sensor_type;location;lat;lon;timestamp;P1;durP1;ratioP1;P2;durP2;ratioP2
10939;SDS011;5522;42.696;23.494;2023-10-13T00:01:04;5.25;;;2.38;;
10939;SDS011;5522;42.696;23.494;2023-10-13T00:03:33;6.28;;;3.08;;
10939;SDS011;5522;42.696;23.494;2023-10-13T00:06:02;3.05;;;2.58;;
10939;SDS011;5522;42.696;23.494;2023-10-13T00:08:29;5.35;;;3.08;;
10939;SDS011;5522;42.696;23.494;2023-10-13T00:10:56;4.32;;;3.33;;
10939;SDS011;5522;42.696;23.494;2023-10-13T00:13:25;3.70;;;2.97;;
10939;SDS011;5522;42.696;23.494;2023-10-13T00:15:53;3.38;;;3.05;;
10939;SDS011;5522;42.696;23.494;2023-10-13T00:18:24;4.47;;;2.80;;
10939;SDS011;5522;42.696;23.494;2023-10-13T00:20:54;4.20;;;3.88;;
10939;SDS011;5522;42.696;23.494;2023-10-13T00:23:22;6.03;;;3.72;;
10939;SDS011;5522;42.696;23.494;2023-10-13T00:25:52;6.57;;;3.10;;
10939;SDS011;5522;42.696;23.494;2023-10-13T00:28:27;4.68;;;3.53;;
10939;SDS011;5522;42.696;23.494;2023-10-13T00:31:08;4.97;;;3.78;;
10939;SDS011;5522;42.696;23.494;2023-10-13T00:33:37;9.10;;;3.72;;
10939;SDS011;5522;42.696;23.494;2023-10-13T00:36:07;10.55;;;3.75;;
10939;SDS011;5522;42.696;23.494;2023-10-13T00:38:42;6.97;;;4.18;;
10939;SDS011;5522;42.696;23.494;2023-10-13T00:41:13;4.22;;;3.58;;
10939;SDS011;5522;42.696;23.494;2023-10-13T00:43:44;4.65;;;3.45;;
10939;SDS011;5522;42.696;23.494;2023-10-13T00:46:29;4.43;;;3.97;;
10939;SDS011;5522;42.696;23.494;2023-10-13T00:48:58;8.68;;;3.47;;
10939;SDS011;5522;42.696;23.494;2023-10-13T00:51:28;5.45;;;3.47;;
10939;SDS011;5522;42.696;23.494;2023-10-13T00:54:03;8.82;;;3.75;;
10939;SDS011;5522;42.696;23.494;2023-10-13T00:56:37;4.25;;;3.60;;
10939;SDS011;5522;42.696;23.494;2023-10-13T00:59:12;5.30;;;3.78;;
10939;SDS011;5522;42.696;23.494;2023-10-13T01:06:51;4.70;;;3.08;;
10939;SDS011;5522;42.696;23.494;2023-10-13T01:09:18;3.42;;;3.13;;
10939;SDS011;5522;42.696;23.494;2023-10-13T01:11:44;3.25;;;3.05;;
10939;SDS011;5522;42.696;23.494;2023-10-13T01:14:13;3.65;;;2.70;;
10939;SDS011;5522;42.696;23.494;2023-10-13T01:16:42;3.40;;;3.20;;
10939;SDS011;5522;42.696;23.494;2023-10-13T01:19:10;6.00;;;3.17;;
10939;SDS011;5522;42.696;23.494;2023-10-13T01:21:37;2.95;;;2.67;;
10939;SDS011;5522;42.696;23.494;2023-10-13T01:24:07;4.50;;;3.50;;
10939;SDS011;5522;42.696;23.494;2023-10-13T01:26:34;4.00;;;2.80;;
10939;SDS011;5522;42.696;23.494;2023-10-13T01:29:04;2.80;;;2.60;;
10939;SDS011;5522;42.696;23.494;2023-10-13T01:31:39;2.97;;;2.67;;
10939;SDS011;5522;42.696;23.494;2023-10-13T01:34:11;2.38;;;2.25;;
10939;SDS011;5522;42.696;23.494;2023-10-13T01:36:38;2.50;;;2.30;;
10939;SDS011;5522;42.696;23.494;2023-10-13T01:39:07;3.22;;;2.28;;
10939;SDS011;5522;42.696;23.494;2023-10-13T01:41:35;4.28;;;2.28;;
10939;SDS011;5522;42.696;23.494;2023-10-13T01:44:04;17.42;;;2.63;;
10939;SDS011;5522;42.696;23.494;2023-10-13T01:46:30;9.45;;;3.08;;
10939;SDS011;5522;42.696;23.494;2023-10-13T01:48:57;8.32;;;3.17;;
10939;SDS011;5522;42.696;23.494;2023-10-13T01:51:23;5.95;;;2.10;;
10939;SDS011;5522;42.696;23.494;2023-10-13T01:53:52;7.90;;;2.63;;
10939;SDS011;5522;42.696;23.494;2023-10-13T01:56:23;4.00;;;2.65;;
10939;SDS011;5522;42.696;23.494;2023-10-13T01:58:50;3.47;;;2.50;;
10939;SDS011;5522;42.696;23.494;2023-10-13T02:01:17;3.28;;;2.85;;
10939;SDS011;5522;42.696;23.494;2023-10-13T02:03:51;5.22;;;2.95;;
10939;SDS011;5522;42.696;23.494;2023-10-13T02:06:26;6.53;;;3.38;;
10939;SDS011;5522;42.696;23.494;2023-10-13T02:08:57;3.25;;;2.92;;
10939;SDS011;5522;42.696;23.494;2023-10-13T02:11:31;7.20;;;3.20;;
10939;SDS011;5522;42.696;23.494;2023-10-13T02:13:58;3.55;;;3.00;;
10939;SDS011;5522;42.696;23.494;2023-10-13T02:16:25;11.52;;;3.17;;
10939;SDS011;5522;42.696;23.494;2023-10-13T02:18:52;9.52;;;3.20;;
10939;SDS011;5522;42.696;23.494;2023-10-13T02:21:18;7.65;;;3.30;;
10939;SDS011;5522;42.696;23.494;2023-10-13T02:23:45;6.50;;;3.13;;
10939;SDS011;5522;42.696;23.494;2023-10-13T02:26:24;3.17;;;3.00;;
10939;SDS011;5522;42.696;23.494;2023-10-13T02:28:57;3.80;;;3.22;;
10939;SDS011;5522;42.696;23.494;2023-10-13T02:31:23;5.72;;;3.17;;
10939;SDS011;5522;42.696;23.494;2023-10-13T02:33:50;8.07;;;2.88;;
10939;SDS011;5522;42.696;23.494;2023-10-13T02:36:16;5.80;;;3.60;;
10939;SDS011;5522;42.696;23.494;2023-10-13T02:38:47;3.85;;;3.50;;
10939;SDS011;5522;42.696;23.494;2023-10-13T02:41:16;3.75;;;2.95;;
10939;SDS011;5522;42.696;23.494;2023-10-13T02:43:50;2.83;;;2.60;;
10939;SDS011;5522;42.696;23.494;2023-10-13T02:46:18;3.60;;;3.05;;
10939;SDS011;5522;42.696;23.494;2023-10-13T02:48:47;5.65;;;3.50;;
10939;SDS011;5522;42.696;23.494;2023-10-13T02:51:18;4.43;;;3.15;;
10939;SDS011;5522;42.696;23.494;2023-10-13T02:53:50;8.07;;;3.30;;
10939;SDS011;5522;42.696;23.494;2023-10-13T02:56:17;5.95;;;3.00;;
10939;SDS011;5522;42.696;23.494;2023-10-13T02:58:47;4.10;;;3.63;;
10939;SDS011;5522;42.696;23.494;2023-10-13T03:01:20;3.42;;;3.22;;
10939;SDS011;5522;42.696;23.494;2023-10-13T03:03:52;3.90;;;2.90;;
10939;SDS011;5522;42.696;23.494;2023-10-13T03:06:20;6.70;;;3.05;;
10939;SDS011;5522;42.696;23.494;2023-10-13T03:08:49;1.98;;;1.88;;
10939;SDS011;5522;42.696;23.494;2023-10-13T03:11:16;2.58;;;2.33;;
10939;SDS011;5522;42.696;23.494;2023-10-13T03:13:47;3.45;;;2.15;;
10939;SDS011;5522;42.696;23.494;2023-10-13T03:16:13;3.53;;;2.63;;
10939;SDS011;5522;42.696;23.494;2023-10-13T03:18:48;4.30;;;3.10;;
10939;SDS011;5522;42.696;23.494;2023-10-13T03:21:19;3.55;;;2.92;;
10939;SDS011;5522;42.696;23.494;2023-10-13T03:23:56;2.72;;;2.47;;
10939;SDS011;5522;42.696;23.494;2023-10-13T03:26:30;2.95;;;2.70;;
10939;SDS011;5522;42.696;23.494;2023-10-13T03:29:01;4.25;;;2.60;;
10939;SDS011;5522;42.696;23.494;2023-10-13T03:31:29;5.22;;;2.92;;
10939;SDS011;5522;42.696;23.494;2023-10-13T03:34:03;3.55;;;2.92;;
10939;SDS011;5522;42.696;23.494;2023-10-13T03:36:37;6.57;;;2.60;;
10939;SDS011;5522;42.696;23.494;2023-10-13T03:39:23;5.30;;;3.15;;
10939;SDS011;5522;42.696;23.494;2023-10-13T03:41:57;4.78;;;2.63;;
10939;SDS011;5522;42.696;23.494;2023-10-13T03:44:25;6.90;;;2.83;;
10939;SDS011;5522;42.696;23.494;2023-10-13T03:47:01;4.45;;;2.97;;
10939;SDS011;5522;42.696;23.494;2023-10-13T03:49:44;3.72;;;2.35;;
10939;SDS011;5522;42.696;23.494;2023-10-13T03:52:16;2.30;;;2.15;;
10939;SDS011;5522;42.696;23.494;2023-10-13T03:54:47;2.55;;;2.35;;
10939;SDS011;5522;42.696;23.494;2023-10-13T03:57:16;10.88;;;2.97;;
10939;SDS011;5522;42.696;23.494;2023-10-13T03:59:43;7.93;;;3.80;;
10939;SDS011;5522;42.696;23.494;2023-10-13T04:02:13;4.50;;;3.05;;
10939;SDS011;5522;42.696;23.494;2023-10-13T04:04:45;3.55;;;3.20;;
10939;SDS011;5522;42.696;23.494;2023-10-13T04:07:21;3.67;;;3.15;;
10939;SDS011;5522;42.696;23.494;2023-10-13T04:10:26;4.50;;;3.63;;
10939;SDS011;5522;42.696;23.494;2023-10-13T04:13:10;3.60;;;3.28;;
10939;SDS011;5522;42.696;23.494;2023-10-13T04:15:54;5.40;;;4.63;;
10939;SDS011;5522;42.696;23.494;2023-10-13T04:18:59;4.25;;;3.80;;
10939;SDS011;5522;42.696;23.494;2023-10-13T04:21:36;9.48;;;5.68;;
10939;SDS011;5522;42.696;23.494;2023-10-13T04:24:08;6.00;;;4.90;;
10939;SDS011;5522;42.696;23.494;2023-10-13T04:26:49;8.68;;;7.32;;
10939;SDS011;5522;42.696;23.494;2023-10-13T04:29:30;12.50;;;9.88;;
10939;SDS011;5522;42.696;23.494;2023-10-13T04:32:15;11.07;;;6.50;;
10939;SDS011;5522;42.696;23.494;2023-10-13T04:34:53;7.93;;;5.25;;
10939;SDS011;5522;42.696;23.494;2023-10-13T04:37:25;9.90;;;5.90;;
10939;SDS011;5522;42.696;23.494;2023-10-13T04:39:54;5.18;;;4.75;;
10939;SDS011;5522;42.696;23.494;2023-10-13T04:42:25;4.32;;;4.00;;
10939;SDS011;5522;42.696;23.494;2023-10-13T04:45:05;10.52;;;7.25;;
10939;SDS011;5522;42.696;23.494;2023-10-13T04:48:02;6.43;;;5.28;;
10939;SDS011;5522;42.696;23.494;2023-10-13T04:50:38;8.75;;;5.68;;
10939;SDS011;5522;42.696;23.494;2023-10-13T04:53:11;7.13;;;6.13;;
10939;SDS011;5522;42.696;23.494;2023-10-13T04:55:53;7.60;;;5.75;;
10939;SDS011;5522;42.696;23.494;2023-10-13T04:58:53;8.65;;;6.20;;
10939;SDS011;5522;42.696;23.494;2023-10-13T05:01:38;8.40;;;5.55;;
10939;SDS011;5522;42.696;23.494;2023-10-13T05:04:22;4.68;;;3.70;;
10939;SDS011;5522;42.696;23.494;2023-10-13T05:07:03;8.10;;;2.00;;
10939;SDS011;5522;42.696;23.494;2023-10-13T05:09:49;5.18;;;2.05;;
10939;SDS011;5522;42.696;23.494;2023-10-13T05:12:33;1.17;;;1.15;;
10939;SDS011;5522;42.696;23.494;2023-10-13T05:15:18;3.92;;;1.30;;
10939;SDS011;5522;42.696;23.494;2023-10-13T05:18:02;5.80;;;0.80;;
10939;SDS011;5522;42.696;23.494;2023-10-13T05:20:47;5.07;;;1.13;;
10939;SDS011;5522;42.696;23.494;2023-10-13T05:23:32;3.25;;;0.98;;
10939;SDS011;5522;42.696;23.494;2023-10-13T05:26:18;1.13;;;0.70;;
10939;SDS011;5522;42.696;23.494;2023-10-13T05:29:02;4.45;;;0.90;;
10939;SDS011;5522;42.696;23.494;2023-10-13T05:31:46;3.45;;;1.05;;
10939;SDS011;5522;42.696;23.494;2023-10-13T05:34:31;4.50;;;0.70;;
10939;SDS011;5522;42.696;23.494;2023-10-13T05:37:15;4.25;;;0.88;;
10939;SDS011;5522;42.696;23.494;2023-10-13T05:39:59;1.63;;;0.75;;
10939;SDS011;5522;42.696;23.494;2023-10-13T05:42:45;8.95;;;0.70;;
10939;SDS011;5522;42.696;23.494;2023-10-13T05:45:34;2.70;;;0.73;;
10939;SDS011;5522;42.696;23.494;2023-10-13T05:48:26;1.58;;;0.85;;
10939;SDS011;5522;42.696;23.494;2023-10-13T05:51:17;0.77;;;0.60;;
10939;SDS011;5522;42.696;23.494;2023-10-13T05:54:09;4.55;;;0.90;;
10939;SDS011;5522;42.696;23.494;2023-10-13T05:56:54;4.43;;;0.77;;
10939;SDS011;5522;42.696;23.494;2023-10-13T05:59:40;4.72;;;0.93;;
10939;SDS011;5522;42.696;23.494;2023-10-13T06:02:24;1.38;;;0.98;;
10939;SDS011;5522;42.696;23.494;2023-10-13T06:05:09;3.10;;;0.60;;
10939;SDS011;5522;42.696;23.494;2023-10-13T06:07:54;3.92;;;0.70;;
10939;SDS011;5522;42.696;23.494;2023-10-13T06:10:39;2.35;;;0.80;;
10939;SDS011;5522;42.696;23.494;2023-10-13T06:13:24;2.80;;;0.60;;
10939;SDS011;5522;42.696;23.494;2023-10-13T06:16:10;5.80;;;0.80;;
10939;SDS011;5522;42.696;23.494;2023-10-13T06:18:55;3.13;;;1.17;;
10939;SDS011;5522;42.696;23.494;2023-10-13T06:21:39;1.52;;;0.55;;
10939;SDS011;5522;42.696;23.494;2023-10-13T06:24:35;0.93;;;0.80;;
10939;SDS011;5522;42.696;23.494;2023-10-13T06:27:19;2.30;;;0.63;;
10939;SDS011;5522;42.696;23.494;2023-10-13T06:30:04;0.90;;;0.68;;
10939;SDS011;5522;42.696;23.494;2023-10-13T06:44:45;6.35;;;0.90;;
10939;SDS011;5522;42.696;23.494;2023-10-13T06:47:12;2.85;;;0.82;;
10939;SDS011;5522;42.696;23.494;2023-10-13T06:49:39;3.65;;;0.80;;
10939;SDS011;5522;42.696;23.494;2023-10-13T06:52:08;1.30;;;0.68;;
10939;SDS011;5522;42.696;23.494;2023-10-13T06:54:35;4.57;;;0.70;;
10939;SDS011;5522;42.696;23.494;2023-10-13T06:57:04;2.00;;;1.20;;
10939;SDS011;5522;42.696;23.494;2023-10-13T06:59:32;1.10;;;0.90;;
10939;SDS011;5522;42.696;23.494;2023-10-13T07:02:03;1.55;;;1.00;;
10939;SDS011;5522;42.696;23.494;2023-10-13T07:04:31;2.75;;;0.85;;
10939;SDS011;5522;42.696;23.494;2023-10-13T07:06:58;1.60;;;1.20;;
10939;SDS011;5522;42.696;23.494;2023-10-13T07:09:26;1.85;;;1.38;;
10939;SDS011;5522;42.696;23.494;2023-10-13T07:12:14;6.55;;;1.10;;
10939;SDS011;5522;42.696;23.494;2023-10-13T07:14:47;2.58;;;1.23;;
10939;SDS011;5522;42.696;23.494;2023-10-13T07:17:19;7.35;;;1.63;;
10939;SDS011;5522;42.696;23.494;2023-10-13T07:19:50;2.05;;;1.27;;
10939;SDS011;5522;42.696;23.494;2023-10-13T07:22:21;2.20;;;1.25;;
10939;SDS011;5522;42.696;23.494;2023-10-13T07:24:49;3.50;;;1.42;;
10939;SDS011;5522;42.696;23.494;2023-10-13T07:27:17;6.03;;;1.90;;
10939;SDS011;5522;42.696;23.494;2023-10-13T07:29:49;2.90;;;1.63;;
10939;SDS011;5522;42.696;23.494;2023-10-13T07:32:23;4.38;;;1.77;;
10939;SDS011;5522;42.696;23.494;2023-10-13T07:34:54;1.52;;;1.48;;
10939;SDS011;5522;42.696;23.494;2023-10-13T07:37:22;4.15;;;1.80;;
10939;SDS011;5522;42.696;23.494;2023-10-13T07:39:53;2.47;;;2.00;;
10939;SDS011;5522;42.696;23.494;2023-10-13T07:42:23;5.95;;;1.85;;
10939;SDS011;5522;42.696;23.494;2023-10-13T07:44:55;1.90;;;1.70;;
10939;SDS011;5522;42.696;23.494;2023-10-13T07:47:24;4.20;;;1.88;;
10939;SDS011;5522;42.696;23.494;2023-10-13T07:49:53;5.63;;;2.53;;
10939;SDS011;5522;42.696;23.494;2023-10-13T07:52:22;3.10;;;1.55;;
10939;SDS011;5522;42.696;23.494;2023-10-13T07:55:01;7.13;;;1.95;;
10939;SDS011;5522;42.696;23.494;2023-10-13T07:57:36;5.35;;;2.42;;
10939;SDS011;5522;42.696;23.494;2023-10-13T08:00:18;2.45;;;2.20;;
10939;SDS011;5522;42.696;23.494;2023-10-13T08:02:59;6.38;;;2.20;;
10939;SDS011;5522;42.696;23.494;2023-10-13T08:05:44;5.20;;;2.53;;
10939;SDS011;5522;42.696;23.494;2023-10-13T08:08:23;3.13;;;2.10;;
10939;SDS011;5522;42.696;23.494;2023-10-13T08:11:00;4.38;;;2.00;;
10939;SDS011;5522;42.696;23.494;2023-10-13T08:13:33;5.25;;;2.00;;
10939;SDS011;5522;42.696;23.494;2023-10-13T08:16:02;7.10;;;1.80;;
10939;SDS011;5522;42.696;23.494;2023-10-13T08:18:34;11.05;;;1.58;;
10939;SDS011;5522;42.696;23.494;2023-10-13T08:21:06;3.53;;;2.17;;
10939;SDS011;5522;42.696;23.494;2023-10-13T08:23:41;8.82;;;2.17;;
10939;SDS011;5522;42.696;23.494;2023-10-13T08:26:28;11.93;;;2.20;;
10939;SDS011;5522;42.696;23.494;2023-10-13T08:29:17;9.38;;;1.95;;
10939;SDS011;5522;42.696;23.494;2023-10-13T08:32:02;8.60;;;2.42;;
10939;SDS011;5522;42.696;23.494;2023-10-13T08:34:46;15.18;;;2.80;;
10939;SDS011;5522;42.696;23.494;2023-10-13T08:37:34;8.13;;;2.72;;
10939;SDS011;5522;42.696;23.494;2023-10-13T08:40:12;9.23;;;3.30;;
10939;SDS011;5522;42.696;23.494;2023-10-13T08:43:02;4.60;;;2.97;;
10939;SDS011;5522;42.696;23.494;2023-10-13T08:45:38;6.25;;;2.63;;
10939;SDS011;5522;42.696;23.494;2023-10-13T08:48:24;8.43;;;2.88;;
10939;SDS011;5522;42.696;23.494;2023-10-13T08:50:59;8.13;;;2.85;;
10939;SDS011;5522;42.696;23.494;2023-10-13T08:53:37;13.55;;;3.22;;
10939;SDS011;5522;42.696;23.494;2023-10-13T08:56:17;12.25;;;3.25;;
10939;SDS011;5522;42.696;23.494;2023-10-13T08:58:44;11.00;;;4.13;;
10939;SDS011;5522;42.696;23.494;2023-10-13T09:01:31;9.15;;;4.63;;
10939;SDS011;5522;42.696;23.494;2023-10-13T09:04:11;11.90;;;4.78;;
10939;SDS011;5522;42.696;23.494;2023-10-13T09:06:50;12.70;;;5.10;;
10939;SDS011;5522;42.696;23.494;2023-10-13T09:09:44;12.07;;;4.50;;
10939;SDS011;5522;42.696;23.494;2023-10-13T09:12:57;13.52;;;3.75;;
10939;SDS011;5522;42.696;23.494;2023-10-13T09:15:29;13.45;;;4.72;;
10939;SDS011;5522;42.696;23.494;2023-10-13T09:18:10;11.95;;;5.03;;
10939;SDS011;5522;42.696;23.494;2023-10-13T09:20:40;13.23;;;4.85;;
10939;SDS011;5522;42.696;23.494;2023-10-13T09:23:13;22.15;;;5.20;;
10939;SDS011;5522;42.696;23.494;2023-10-13T09:25:49;19.83;;;5.55;;
10939;SDS011;5522;42.696;23.494;2023-10-13T09:28:23;16.10;;;5.47;;
10939;SDS011;5522;42.696;23.494;2023-10-13T09:30:54;15.15;;;5.50;;
10939;SDS011;5522;42.696;23.494;2023-10-13T09:33:22;12.88;;;4.78;;
10939;SDS011;5522;42.696;23.494;2023-10-13T09:35:58;10.85;;;5.03;;
10939;SDS011;5522;42.696;23.494;2023-10-13T09:38:25;15.50;;;4.53;;
10939;SDS011;5522;42.696;23.494;2023-10-13T09:40:54;13.52;;;4.05;;
10939;SDS011;5522;42.696;23.494;2023-10-13T09:43:22;9.35;;;3.65;;
10939;SDS011;5522;42.696;23.494;2023-10-13T09:45:52;6.80;;;3.22;;
10939;SDS011;5522;42.696;23.494;2023-10-13T09:48:36;6.43;;;3.25;;
10939;SDS011;5522;42.696;23.494;2023-10-13T09:51:06;13.13;;;3.30;;
10939;SDS011;5522;42.696;23.494;2023-10-13T09:53:39;6.70;;;3.35;;
10939;SDS011;5522;42.696;23.494;2023-10-13T09:56:10;9.38;;;3.55;;
10939;SDS011;5522;42.696;23.494;2023-10-13T09:58:46;8.38;;;3.38;;
10939;SDS011;5522;42.696;23.494;2023-10-13T10:01:24;13.73;;;3.85;;
10939;SDS011;5522;42.696;23.494;2023-10-13T10:04:06;10.27;;;3.92;;
10939;SDS011;5522;42.696;23.494;2023-10-13T10:06:39;8.55;;;3.70;;
10939;SDS011;5522;42.696;23.494;2023-10-13T10:09:12;12.50;;;4.45;;
10939;SDS011;5522;42.696;23.494;2023-10-13T10:11:48;5.32;;;3.03;;
10939;SDS011;5522;42.696;23.494;2023-10-13T10:14:47;9.02;;;3.72;;
10939;SDS011;5522;42.696;23.494;2023-10-13T10:17:26;14.57;;;3.95;;
10939;SDS011;5522;42.696;23.494;2023-10-13T10:19:58;6.45;;;4.25;;
10939;SDS011;5522;42.696;23.494;2023-10-13T10:22:31;14.40;;;4.18;;
10939;SDS011;5522;42.696;23.494;2023-10-13T10:25:02;12.95;;;4.22;;
10939;SDS011;5522;42.696;23.494;2023-10-13T10:27:33;8.45;;;3.60;;
10939;SDS011;5522;42.696;23.494;2023-10-13T10:30:00;10.55;;;4.63;;
10939;SDS011;5522;42.696;23.494;2023-10-13T10:32:32;13.30;;;4.40;;
10939;SDS011;5522;42.696;23.494;2023-10-13T10:35:07;13.73;;;4.30;;
10939;SDS011;5522;42.696;23.494;2023-10-13T10:37:40;7.85;;;3.55;;
10939;SDS011;5522;42.696;23.494;2023-10-13T10:40:13;12.52;;;3.88;;
10939;SDS011;5522;42.696;23.494;2023-10-13T10:42:58;10.93;;;3.88;;
10939;SDS011;5522;42.696;23.494;2023-10-13T10:45:26;14.98;;;3.95;;
10939;SDS011;5522;42.696;23.494;2023-10-13T10:47:57;11.20;;;3.47;;
10939;SDS011;5522;42.696;23.494;2023-10-13T10:50:25;18.20;;;3.38;;
10939;SDS011;5522;42.696;23.494;2023-10-13T10:53:00;7.28;;;2.90;;
10939;SDS011;5522;42.696;23.494;2023-10-13T10:55:35;12.75;;;3.60;;
10939;SDS011;5522;42.696;23.494;2023-10-13T10:58:03;13.23;;;3.20;;
10939;SDS011;5522;42.696;23.494;2023-10-13T11:00:31;7.53;;;3.22;;
10939;SDS011;5522;42.696;23.494;2023-10-13T11:03:11;10.80;;;2.38;;
10939;SDS011;5522;42.696;23.494;2023-10-13T11:05:44;6.45;;;2.25;;
10939;SDS011;5522;42.696;23.494;2023-10-13T11:08:21;7.38;;;2.40;;
10939;SDS011;5522;42.696;23.494;2023-10-13T11:10:57;6.25;;;2.13;;
10939;SDS011;5522;42.696;23.494;2023-10-13T11:13:26;7.40;;;1.77;;
10939;SDS011;5522;42.696;23.494;2023-10-13T11:15:56;4.50;;;1.90;;
10939;SDS011;5522;42.696;23.494;2023-10-13T11:18:29;5.95;;;2.15;;
10939;SDS011;5522;42.696;23.494;2023-10-13T11:20:59;4.40;;;1.92;;
10939;SDS011;5522;42.696;23.494;2023-10-13T11:23:30;5.38;;;1.92;;
10939;SDS011;5522;42.696;23.494;2023-10-13T11:25:59;8.70;;;1.90;;
10939;SDS011;5522;42.696;23.494;2023-10-13T11:28:26;8.32;;;1.92;;
10939;SDS011;5522;42.696;23.494;2023-10-13T11:30:53;4.72;;;1.35;;
10939;SDS011;5522;42.696;23.494;2023-10-13T11:33:24;2.80;;;1.50;;
10939;SDS011;5522;42.696;23.494;2023-10-13T11:35:52;10.23;;;1.95;;
10939;SDS011;5522;42.696;23.494;2023-10-13T11:38:22;10.40;;;2.33;;
10939;SDS011;5522;42.696;23.494;2023-10-13T11:40:54;8.82;;;1.48;;
10939;SDS011;5522;42.696;23.494;2023-10-13T11:43:49;6.03;;;1.45;;
10939;SDS011;5522;42.696;23.494;2023-10-13T11:46:32;4.22;;;0.88;;
10939;SDS011;5522;42.696;23.494;2023-10-13T11:49:16;6.82;;;1.10;;
10939;SDS011;5522;42.696;23.494;2023-10-13T11:51:44;5.93;;;1.20;;
10939;SDS011;5522;42.696;23.494;2023-10-13T11:54:13;4.20;;;0.75;;
10939;SDS011;5522;42.696;23.494;2023-10-13T11:56:40;5.45;;;1.08;;
10939;SDS011;5522;42.696;23.494;2023-10-13T11:59:08;9.57;;;1.00;;
10939;SDS011;5522;42.696;23.494;2023-10-13T12:01:42;6.90;;;1.30;;
10939;SDS011;5522;42.696;23.494;2023-10-13T12:04:27;3.38;;;1.13;;
10939;SDS011;5522;42.696;23.494;2023-10-13T12:06:58;12.40;;;1.45;;
10939;SDS011;5522;42.696;23.494;2023-10-13T12:09:39;4.38;;;1.20;;
10939;SDS011;5522;42.696;23.494;2023-10-13T12:12:17;2.85;;;1.15;;
10939;SDS011;5522;42.696;23.494;2023-10-13T12:14:45;7.88;;;0.90;;
10939;SDS011;5522;42.696;23.494;2023-10-13T12:17:20;5.32;;;0.82;;
10939;SDS011;5522;42.696;23.494;2023-10-13T12:19:51;2.70;;;0.70;;
10939;SDS011;5522;42.696;23.494;2023-10-13T12:22:18;1.67;;;0.60;;
10939;SDS011;5522;42.696;23.494;2023-10-13T12:24:52;4.65;;;0.77;;
10939;SDS011;5522;42.696;23.494;2023-10-13T12:27:19;5.07;;;0.82;;
10939;SDS011;5522;42.696;23.494;2023-10-13T12:29:50;1.85;;;0.70;;
10939;SDS011;5522;42.696;23.494;2023-10-13T12:32:18;2.45;;;1.08;;
10939;SDS011;5522;42.696;23.494;2023-10-13T12:34:47;5.22;;;0.70;;
10939;SDS011;5522;42.696;23.494;2023-10-13T12:37:26;2.70;;;0.63;;
10939;SDS011;5522;42.696;23.494;2023-10-13T12:40:12;9.85;;;0.88;;
10939;SDS011;5522;42.696;23.494;2023-10-13T12:42:57;1.58;;;0.63;;
10939;SDS011;5522;42.696;23.494;2023-10-13T12:45:43;5.95;;;0.60;;
10939;SDS011;5522;42.696;23.494;2023-10-13T12:48:29;5.30;;;0.57;;
10939;SDS011;5522;42.696;23.494;2023-10-13T12:51:16;1.05;;;0.68;;
10939;SDS011;5522;42.696;23.494;2023-10-13T12:54:02;2.83;;;0.70;;
10939;SDS011;5522;42.696;23.494;2023-10-13T12:56:31;4.47;;;0.70;;
10939;SDS011;5522;42.696;23.494;2023-10-13T12:58:58;3.10;;;0.80;;
10939;SDS011;5522;42.696;23.494;2023-10-13T13:01:26;3.38;;;0.75;;
10939;SDS011;5522;42.696;23.494;2023-10-13T13:03:58;5.82;;;1.52;;
10939;SDS011;5522;42.696;23.494;2023-10-13T13:06:29;9.95;;;1.38;;
10939;SDS011;5522;42.696;23.494;2023-10-13T13:08:56;3.42;;;0.95;;
10939;SDS011;5522;42.696;23.494;2023-10-13T13:11:24;3.55;;;1.30;;
10939;SDS011;5522;42.696;23.494;2023-10-13T13:13:53;7.32;;;1.20;;
10939;SDS011;5522;42.696;23.494;2023-10-13T13:16:20;3.58;;;0.70;;
10939;SDS011;5522;42.696;23.494;2023-10-13T13:18:51;4.78;;;0.90;;
10939;SDS011;5522;42.696;23.494;2023-10-13T13:21:19;6.95;;;0.85;;
10939;SDS011;5522;42.696;23.494;2023-10-13T13:23:48;2.75;;;0.80;;
10939;SDS011;5522;42.696;23.494;2023-10-13T13:26:15;5.82;;;0.60;;
10939;SDS011;5522;42.696;23.494;2023-10-13T13:28:44;5.85;;;0.73;;
10939;SDS011;5522;42.696;23.494;2023-10-13T13:31:15;5.88;;;1.10;;
10939;SDS011;5522;42.696;23.494;2023-10-13T13:33:42;1.98;;;0.50;;
10939;SDS011;5522;42.696;23.494;2023-10-13T13:36:10;1.73;;;0.70;;
10939;SDS011;5522;42.696;23.494;2023-10-13T13:38:40;5.57;;;0.70;;
10939;SDS011;5522;42.696;23.494;2023-10-13T13:41:11;3.70;;;0.70;;
10939;SDS011;5522;42.696;23.494;2023-10-13T13:43:41;4.20;;;0.82;;
10939;SDS011;5522;42.696;23.494;2023-10-13T13:46:20;4.07;;;0.80;;
10939;SDS011;5522;42.696;23.494;2023-10-13T13:48:50;9.32;;;1.08;;
10939;SDS011;5522;42.696;23.494;2023-10-13T13:51:24;1.17;;;0.50;;
10939;SDS011;5522;42.696;23.494;2023-10-13T13:53:53;7.88;;;1.10;;
10939;SDS011;5522;42.696;23.494;2023-10-13T13:56:20;5.93;;;0.80;;
10939;SDS011;5522;42.696;23.494;2023-10-13T13:58:50;0.88;;;0.60;;
10939;SDS011;5522;42.696;23.494;2023-10-13T14:01:18;2.88;;;0.75;;
10939;SDS011;5522;42.696;23.494;2023-10-13T14:03:47;3.85;;;0.70;;
10939;SDS011;5522;42.696;23.494;2023-10-13T14:06:16;3.80;;;0.80;;
10939;SDS011;5522;42.696;23.494;2023-10-13T14:08:47;4.35;;;0.80;;
10939;SDS011;5522;42.696;23.494;2023-10-13T14:11:16;4.38;;;0.77;;
10939;SDS011;5522;42.696;23.494;2023-10-13T14:14:10;7.35;;;0.80;;
10939;SDS011;5522;42.696;23.494;2023-10-13T14:16:37;2.63;;;1.00;;
10939;SDS011;5522;42.696;23.494;2023-10-13T14:19:09;7.13;;;1.10;;
10939;SDS011;5522;42.696;23.494;2023-10-13T14:21:36;3.42;;;1.00;;
10939;SDS011;5522;42.696;23.494;2023-10-13T14:24:05;4.15;;;1.75;;
10939;SDS011;5522;42.696;23.494;2023-10-13T14:26:38;6.40;;;1.25;;
10939;SDS011;5522;42.696;23.494;2023-10-13T14:29:08;6.85;;;1.55;;
10939;SDS011;5522;42.696;23.494;2023-10-13T14:31:39;3.63;;;1.23;;
10939;SDS011;5522;42.696;23.494;2023-10-13T14:34:09;5.38;;;0.80;;
10939;SDS011;5522;42.696;23.494;2023-10-13T14:36:36;3.83;;;0.60;;
10939;SDS011;5522;42.696;23.494;2023-10-13T14:39:05;6.18;;;0.43;;
10939;SDS011;5522;42.696;23.494;2023-10-13T14:41:35;1.85;;;0.43;;
10939;SDS011;5522;42.696;23.494;2023-10-13T14:44:03;7.65;;;1.00;;
10939;SDS011;5522;42.696;23.494;2023-10-13T14:46:32;7.00;;;0.52;;
10939;SDS011;5522;42.696;23.494;2023-10-13T14:49:01;1.80;;;0.50;;
10939;SDS011;5522;42.696;23.494;2023-10-13T14:51:28;1.52;;;0.40;;
10939;SDS011;5522;42.696;23.494;2023-10-13T14:53:57;3.83;;;0.50;;
10939;SDS011;5522;42.696;23.494;2023-10-13T14:56:26;4.72;;;1.05;;
10939;SDS011;5522;42.696;23.494;2023-10-13T14:58:54;4.18;;;0.40;;
10939;SDS011;5522;42.696;23.494;2023-10-13T15:01:21;4.75;;;0.52;;
10939;SDS011;5522;42.696;23.494;2023-10-13T15:03:52;10.70;;;0.60;;
10939;SDS011;5522;42.696;23.494;2023-10-13T15:06:20;7.25;;;0.60;;
10939;SDS011;5522;42.696;23.494;2023-10-13T15:08:50;3.28;;;0.50;;
10939;SDS011;5522;42.696;23.494;2023-10-13T15:11:19;9.80;;;0.73;;
10939;SDS011;5522;42.696;23.494;2023-10-13T15:13:48;5.35;;;0.50;;
10939;SDS011;5522;42.696;23.494;2023-10-13T15:16:15;9.93;;;1.02;;
10939;SDS011;5522;42.696;23.494;2023-10-13T15:18:43;6.55;;;0.65;;
10939;SDS011;5522;42.696;23.494;2023-10-13T15:21:11;3.50;;;0.50;;
10939;SDS011;5522;42.696;23.494;2023-10-13T15:23:44;4.43;;;0.50;;
10939;SDS011;5522;42.696;23.494;2023-10-13T15:26:11;4.72;;;0.40;;
10939;SDS011;5522;42.696;23.494;2023-10-13T15:28:39;8.95;;;0.60;;
10939;SDS011;5522;42.696;23.494;2023-10-13T15:31:15;2.17;;;0.45;;
10939;SDS011;5522;42.696;23.494;2023-10-13T15:34:03;4.15;;;0.40;;
10939;SDS011;5522;42.696;23.494;2023-10-13T15:36:38;2.80;;;0.82;;
10939;SDS011;5522;42.696;23.494;2023-10-13T15:39:06;9.43;;;0.88;;
10939;SDS011;5522;42.696;23.494;2023-10-13T15:41:35;6.85;;;1.10;;
10939;SDS011;5522;42.696;23.494;2023-10-13T15:44:04;6.70;;;1.30;;